sensor_id;sensor_type;location;lat;lon;timestamp;pressure;altitude;pressure_sealevel;temperature;humidity
51439;BME280;38816;51.142;-0.974;2023-03-19T00:00:11;99538.19;;;7.95;100.00
51439;BME280;38816;51.142;-0.974;2023-03-19T00:02:37;99543.53;;;8.07;100.00
51439;BME280;38816;51.142;-0.974;2023-03-19T00:05:03;99532.38;;;8.03;100.00
51439;BME280;38816;51.142;-0.974;2023-03-19T00:07:29;99540.06;;;8.05;100.00
51439;BME280;38816;51.142;-0.974;2023-03-19T00:09:55;99553.03;;;8.16;100.00
51439;BME280;38816;51.142;-0.974;2023-03-19T00:12:20;99553.03;;;8.17;100.00
51439;BME280;38816;51.142;-0.974;2023-03-19T00:14:46;99550.53;;;8.20;100.00
51439;BME280;38816;51.142;-0.974;2023-03-19T00:17:11;99548.72;;;8.15;100.00
51439;BME280;38816;51.142;-0.974;2023-03-19T00:19:37;99563.34;;;8.22;100.00
51439;BME280;38816;51.142;-0.974;2023-03-19T00:22:03;99553.09;;;8.20;100.00
51439;BME280;38816;51.142;-0.974;2023-03-19T00:24:29;99555.63;;;8.19;100.00
51439;BME280;38816;51.142;-0.974;2023-03-19T00:26:54;99559.09;;;8.22;100.00
51439;BME280;38816;51.142;-0.974;2023-03-19T00:29:20;99562.56;;;8.27;100.00
51439;BME280;38816;51.142;-0.974;2023-03-19T00:31:45;99576.22;;;8.25;100.00
51439;BME280;38816;51.142;-0.974;2023-03-19T00:34:11;99582.22;;;8.27;100.00
51439;BME280;38816;51.142;-0.974;2023-03-19T00:36:38;99574.53;;;8.28;100.00
51439;BME280;38816;51.142;-0.974;2023-03-19T00:39:04;99571.97;;;8.27;100.00
51439;BME280;38816;51.142;-0.974;2023-03-19T00:41:30;99573.66;;;8.25;100.00
51439;BME280;38816;51.142;-0.974;2023-03-19T00:43:56;99568.47;;;8.20;100.00
51439;BME280;38816;51.142;-0.974;2023-03-19T00:46:22;99581.34;;;8.26;100.00
51439;BME280;38816;51.142;-0.974;2023-03-19T00:48:48;99576.22;;;8.26;100.00
51439;BME280;38816;51.142;-0.974;2023-03-19T00:51:15;99577.88;;;8.21;100.00
51439;BME280;38816;51.142;-0.974;2023-03-19T00:53:42;99570.97;;;8.17;100.00
51439;BME280;38816;51.142;-0.974;2023-03-19T00:56:09;99586.34;;;8.19;100.00
51439;BME280;38816;51.142;-0.974;2023-03-19T00:58:35;99587.97;;;8.12;100.00
51439;BME280;38816;51.142;-0.974;2023-03-19T01:01:03;99613.19;;;7.91;100.00
51439;BME280;38816;51.142;-0.974;2023-03-19T01:03:28;99639.59;;;7.43;100.00
51439;BME280;38816;51.142;-0.974;2023-03-19T01:05:54;99654.09;;;7.00;100.00
51439;BME280;38816;51.142;-0.974;2023-03-19T01:08:19;99629.34;;;6.58;100.00
51439;BME280;38816;51.142;-0.974;2023-03-19T01:10:45;99634.03;;;6.40;100.00
51439;BME280;38816;51.142;-0.974;2023-03-19T01:13:11;99628.63;;;6.27;100.00
51439;BME280;38816;51.142;-0.974;2023-03-19T01:15:38;99642.22;;;6.26;100.00
51439;BME280;38816;51.142;-0.974;2023-03-19T01:18:05;99652.13;;;6.14;100.00
51439;BME280;38816;51.142;-0.974;2023-03-19T01:20:32;99650.41;;;6.13;100.00
51439;BME280;38816;51.142;-0.974;2023-03-19T01:22:57;99665.59;;;6.08;100.00
51439;BME280;38816;51.142;-0.974;2023-03-19T01:25:23;99654.34;;;6.00;100.00
51439;BME280;38816;51.142;-0.974;2023-03-19T01:27:50;99681.56;;;6.01;100.00
51439;BME280;38816;51.142;-0.974;2023-03-19T01:30:16;99684.88;;;5.97;100.00
51439;BME280;38816;51.142;-0.974;2023-03-19T01:32:41;99687.53;;;6.02;100.00
51439;BME280;38816;51.142;-0.974;2023-03-19T01:35:07;99689.00;;;5.94;100.00
51439;BME280;38816;51.142;-0.974;2023-03-19T01:37:34;99658.47;;;5.95;100.00
51439;BME280;38816;51.142;-0.974;2023-03-19T01:39:59;99687.38;;;5.96;100.00
51439;BME280;38816;51.142;-0.974;2023-03-19T01:42:24;99686.44;;;5.92;100.00
51439;BME280;38816;51.142;-0.974;2023-03-19T01:44:50;99687.16;;;5.88;100.00
51439;BME280;38816;51.142;-0.974;2023-03-19T01:49:52;99711.66;;;5.83;100.00
51439;BME280;38816;51.142;-0.974;2023-03-19T01:52:18;99703.75;;;5.72;100.00
51439;BME280;38816;51.142;-0.974;2023-03-19T01:54:45;99694.28;;;5.68;100.00
51439;BME280;38816;51.142;-0.974;2023-03-19T01:57:13;99704.66;;;5.76;100.00
51439;BME280;38816;51.142;-0.974;2023-03-19T01:59:42;99711.75;;;5.86;100.00
51439;BME280;38816;51.142;-0.974;2023-03-19T02:02:09;99711.56;;;5.78;100.00
51439;BME280;38816;51.142;-0.974;2023-03-19T02:04:39;99691.66;;;5.67;100.00
51439;BME280;38816;51.142;-0.974;2023-03-19T02:07:07;99710.81;;;5.82;100.00
51439;BME280;38816;51.142;-0.974;2023-03-19T02:09:33;99703.81;;;5.75;100.00
51439;BME280;38816;51.142;-0.974;2023-03-19T02:12:00;99711.63;;;5.81;100.00
51439;BME280;38816;51.142;-0.974;2023-03-19T02:14:26;99704.00;;;5.81;100.00
51439;BME280;38816;51.142;-0.974;2023-03-19T02:16:53;99701.31;;;5.77;100.00
51439;BME280;38816;51.142;-0.974;2023-03-19T02:22:30;99683.63;;;5.51;100.00
51439;BME280;38816;51.142;-0.974;2023-03-19T02:25:08;99702.34;;;5.53;100.00
51439;BME280;38816;51.142;-0.974;2023-03-19T02:27:35;99689.28;;;5.41;100.00
51439;BME280;38816;51.142;-0.974;2023-03-19T02:30:17;99680.44;;;5.28;100.00
51439;BME280;38816;51.142;-0.974;2023-03-19T02:32:42;99694.91;;;5.31;100.00
51439;BME280;38816;51.142;-0.974;2023-03-19T02:35:08;99679.31;;;5.19;100.00
51439;BME280;38816;51.142;-0.974;2023-03-19T02:37:34;99694.72;;;5.23;100.00
51439;BME280;38816;51.142;-0.974;2023-03-19T02:40:29;99706.63;;;5.24;100.00
51439;BME280;38816;51.142;-0.974;2023-03-19T02:42:57;99707.59;;;5.28;100.00
51439;BME280;38816;51.142;-0.974;2023-03-19T02:45:27;99707.63;;;5.29;100.00
51439;BME280;38816;51.142;-0.974;2023-03-19T02:47:53;99694.72;;;5.23;100.00
51439;BME280;38816;51.142;-0.974;2023-03-19T02:50:18;99706.06;;;5.34;100.00
51439;BME280;38816;51.142;-0.974;2023-03-19T02:52:43;99685.44;;;5.25;100.00
51439;BME280;38816;51.142;-0.974;2023-03-19T02:55:09;99697.44;;;5.29;100.00
51439;BME280;38816;51.142;-0.974;2023-03-19T02:57:34;99708.16;;;5.48;100.00
51439;BME280;38816;51.142;-0.974;2023-03-19T03:00:00;99721.03;;;5.52;100.00
51439;BME280;38816;51.142;-0.974;2023-03-19T03:02:25;99707.31;;;5.49;100.00
51439;BME280;38816;51.142;-0.974;2023-03-19T03:04:51;99718.59;;;5.57;100.00
51439;BME280;38816;51.142;-0.974;2023-03-19T03:07:16;99721.34;;;5.63;100.00
51439;BME280;38816;51.142;-0.974;2023-03-19T03:09:42;99721.41;;;5.66;100.00
51439;BME280;38816;51.142;-0.974;2023-03-19T03:12:08;99727.38;;;5.67;100.00
51439;BME280;38816;51.142;-0.974;2023-03-19T03:14:33;99732.53;;;5.68;100.00
51439;BME280;38816;51.142;-0.974;2023-03-19T03:16:59;99715.44;;;5.66;100.00
51439;BME280;38816;51.142;-0.974;2023-03-19T03:19:24;99727.47;;;5.70;100.00
51439;BME280;38816;51.142;-0.974;2023-03-19T03:21:50;99723.94;;;5.66;100.00
51439;BME280;38816;51.142;-0.974;2023-03-19T03:24:16;99730.84;;;5.69;100.00
51439;BME280;38816;51.142;-0.974;2023-03-19T03:26:41;99734.38;;;5.74;100.00
51439;BME280;38816;51.142;-0.974;2023-03-19T03:29:08;99743.84;;;5.78;100.00
51439;BME280;38816;51.142;-0.974;2023-03-19T03:31:33;99747.16;;;5.75;100.00
51439;BME280;38816;51.142;-0.974;2023-03-19T03:33:59;99742.00;;;5.72;100.00
51439;BME280;38816;51.142;-0.974;2023-03-19T03:36:26;99738.53;;;5.70;100.00
51439;BME280;38816;51.142;-0.974;2023-03-19T03:38:52;99761.72;;;5.79;100.00
51439;BME280;38816;51.142;-0.974;2023-03-19T03:41:17;99762.59;;;5.80;100.00
51439;BME280;38816;51.142;-0.974;2023-03-19T03:43:43;99766.06;;;5.82;100.00
51439;BME280;38816;51.142;-0.974;2023-03-19T03:46:08;99764.38;;;5.82;100.00
51439;BME280;38816;51.142;-0.974;2023-03-19T03:48:34;99758.28;;;5.77;100.00
51439;BME280;38816;51.142;-0.974;2023-03-19T03:51:00;99770.44;;;5.86;100.00
51439;BME280;38816;51.142;-0.974;2023-03-19T03:53:26;99757.59;;;5.83;100.00
51439;BME280;38816;51.142;-0.974;2023-03-19T03:55:51;99755.72;;;5.77;100.00
51439;BME280;38816;51.142;-0.974;2023-03-19T03:58:17;99770.34;;;5.83;100.00
51439;BME280;38816;51.142;-0.974;2023-03-19T04:00:42;99778.59;;;5.74;100.00
51439;BME280;38816;51.142;-0.974;2023-03-19T04:03:08;99786.97;;;5.70;100.00
51439;BME280;38816;51.142;-0.974;2023-03-19T04:05:34;99786.63;;;5.58;100.00
51439;BME280;38816;51.142;-0.974;2023-03-19T04:08:01;99788.03;;;5.48;100.00
51439;BME280;38816;51.142;-0.974;2023-03-19T04:10:28;99796.50;;;5.47;100.00
51439;BME280;38816;51.142;-0.974;2023-03-19T04:12:53;99805.94;;;5.50;100.00
51439;BME280;38816;51.142;-0.974;2023-03-19T04:15:18;99791.44;;;5.49;100.00
51439;BME280;38816;51.142;-0.974;2023-03-19T04:17:44;99796.75;;;5.55;100.00
51439;BME280;38816;51.142;-0.974;2023-03-19T04:20:10;99805.56;;;5.66;100.00
51439;BME280;38816;51.142;-0.974;2023-03-19T04:22:36;99808.09;;;5.66;100.00
51439;BME280;38816;51.142;-0.974;2023-03-19T04:25:02;99807.13;;;5.63;100.00
51439;BME280;38816;51.142;-0.974;2023-03-19T04:27:29;99812.06;;;5.56;100.00
51439;BME280;38816;51.142;-0.974;2023-03-19T04:29:54;99817.88;;;5.51;100.00
51439;BME280;38816;51.142;-0.974;2023-03-19T04:32:20;99816.59;;;5.37;100.00
51439;BME280;38816;51.142;-0.974;2023-03-19T04:34:45;99808.59;;;5.26;100.00
51439;BME280;38816;51.142;-0.974;2023-03-19T04:37:10;99828.69;;;5.17;100.00
51439;BME280;38816;51.142;-0.974;2023-03-19T04:39:36;99839.59;;;5.13;100.00
51439;BME280;38816;51.142;-0.974;2023-03-19T04:42:02;99822.28;;;5.01;100.00
51439;BME280;38816;51.142;-0.974;2023-03-19T04:44:28;99847.47;;;5.19;100.00
51439;BME280;38816;51.142;-0.974;2023-03-19T04:46:55;99838.97;;;5.18;100.00
51439;BME280;38816;51.142;-0.974;2023-03-19T04:49:20;99845.28;;;5.31;100.00
51439;BME280;38816;51.142;-0.974;2023-03-19T04:51:46;99830.44;;;5.18;100.00
51439;BME280;38816;51.142;-0.974;2023-03-19T04:54:11;99851.13;;;5.27;100.00
51439;BME280;38816;51.142;-0.974;2023-03-19T04:56:36;99846.53;;;5.17;100.00
51439;BME280;38816;51.142;-0.974;2023-03-19T04:59:02;99854.56;;;5.29;100.00
51439;BME280;38816;51.142;-0.974;2023-03-19T05:04:11;99864.53;;;5.21;100.00
51439;BME280;38816;51.142;-0.974;2023-03-19T05:06:36;99849.50;;;5.03;100.00
51439;BME280;38816;51.142;-0.974;2023-03-19T05:09:03;99850.22;;;4.99;100.00
51439;BME280;38816;51.142;-0.974;2023-03-19T05:11:29;99855.13;;;4.93;100.00
51439;BME280;38816;51.142;-0.974;2023-03-19T05:13:55;99865.13;;;4.87;100.00
51439;BME280;38816;51.142;-0.974;2023-03-19T05:16:20;99858.75;;;4.74;100.00
51439;BME280;38816;51.142;-0.974;2023-03-19T05:18:45;99868.63;;;4.65;100.00
51439;BME280;38816;51.142;-0.974;2023-03-19T05:21:11;99869.19;;;4.56;100.00
51439;BME280;38816;51.142;-0.974;2023-03-19T05:23:37;99883.59;;;4.56;100.00
51439;BME280;38816;51.142;-0.974;2023-03-19T05:26:03;99897.72;;;4.48;100.00
51439;BME280;38816;51.142;-0.974;2023-03-19T05:28:29;99894.00;;;4.38;100.00
51439;BME280;38816;51.142;-0.974;2023-03-19T05:30:55;99886.94;;;4.31;100.00
51439;BME280;38816;51.142;-0.974;2023-03-19T05:33:21;99895.50;;;4.33;100.00
51439;BME280;38816;51.142;-0.974;2023-03-19T05:35:47;99899.41;;;4.23;100.00
51439;BME280;38816;51.142;-0.974;2023-03-19T05:38:12;99909.50;;;4.22;100.00
51439;BME280;38816;51.142;-0.974;2023-03-19T05:40:37;99913.03;;;4.25;100.00
51439;BME280;38816;51.142;-0.974;2023-03-19T05:43:06;99906.91;;;4.20;100.00
51439;BME280;38816;51.142;-0.974;2023-03-19T05:45:31;99910.13;;;4.15;100.00
51439;BME280;38816;51.142;-0.974;2023-03-19T05:47:57;99917.66;;;4.13;100.00
51439;BME280;38816;51.142;-0.974;2023-03-19T05:50:22;99913.09;;;4.04;100.00
51439;BME280;38816;51.142;-0.974;2023-03-19T05:52:47;99917.34;;;4.04;100.00
51439;BME280;38816;51.142;-0.974;2023-03-19T05:55:13;99927.63;;;4.07;100.00
51439;BME280;38816;51.142;-0.974;2023-03-19T05:57:38;99937.81;;;4.07;100.00
51439;BME280;38816;51.142;-0.974;2023-03-19T06:00:05;99933.63;;;4.09;100.00
51439;BME280;38816;51.142;-0.974;2023-03-19T06:02:32;99935.09;;;4.02;100.00
51439;BME280;38816;51.142;-0.974;2023-03-19T06:04:57;99945.78;;;3.94;100.00
51439;BME280;38816;51.142;-0.974;2023-03-19T06:07:22;99945.91;;;3.97;100.00
51439;BME280;38816;51.142;-0.974;2023-03-19T06:09:48;99936.06;;;3.84;100.00
51439;BME280;38816;51.142;-0.974;2023-03-19T06:12:13;99940.13;;;3.78;100.00
51439;BME280;38816;51.142;-0.974;2023-03-19T06:14:40;99959.19;;;3.90;100.00
51439;BME280;38816;51.142;-0.974;2023-03-19T06:17:06;99946.34;;;3.87;100.00
51439;BME280;38816;51.142;-0.974;2023-03-19T06:19:31;99943.69;;;3.84;100.00
51439;BME280;38816;51.142;-0.974;2023-03-19T06:21:56;99961.53;;;3.85;100.00
51439;BME280;38816;51.142;-0.974;2023-03-19T06:24:22;99961.38;;;3.80;100.00
51439;BME280;38816;51.142;-0.974;2023-03-19T06:26:47;99969.34;;;3.90;100.00
51439;BME280;38816;51.142;-0.974;2023-03-19T06:29:13;99964.78;;;3.81;100.00
51439;BME280;38816;51.142;-0.974;2023-03-19T06:31:38;99974.38;;;3.88;100.00
51439;BME280;38816;51.142;-0.974;2023-03-19T06:34:06;99985.28;;;3.86;100.00
51439;BME280;38816;51.142;-0.974;2023-03-19T06:36:31;99989.69;;;3.90;100.00
51439;BME280;38816;51.142;-0.974;2023-03-19T06:38:57;99992.47;;;3.96;100.00
51439;BME280;38816;51.142;-0.974;2023-03-19T06:41:22;99990.06;;;3.99;100.00
51439;BME280;38816;51.142;-0.974;2023-03-19T06:43:49;99994.31;;;4.00;100.00
51439;BME280;38816;51.142;-0.974;2023-03-19T06:46:14;99996.88;;;4.00;100.00
51439;BME280;38816;51.142;-0.974;2023-03-19T06:48:40;99988.69;;;3.86;100.00
51439;BME280;38816;51.142;-0.974;2023-03-19T06:51:05;99987.47;;;3.76;100.00
51439;BME280;38816;51.142;-0.974;2023-03-19T06:53:31;99994.91;;;3.72;100.00
51439;BME280;38816;51.142;-0.974;2023-03-19T06:55:56;100003.22;;;3.68;100.00
51439;BME280;38816;51.142;-0.974;2023-03-19T06:58:22;100017.13;;;3.76;100.00
51439;BME280;38816;51.142;-0.974;2023-03-19T07:00:47;100003.19;;;3.66;100.00
51439;BME280;38816;51.142;-0.974;2023-03-19T07:03:12;100022.16;;;3.74;100.00
51439;BME280;38816;51.142;-0.974;2023-03-19T07:05:38;100022.22;;;3.76;100.00
51439;BME280;38816;51.142;-0.974;2023-03-19T07:08:03;100015.22;;;3.70;100.00
51439;BME280;38816;51.142;-0.974;2023-03-19T07:10:31;100027.25;;;3.74;100.00
51439;BME280;38816;51.142;-0.974;2023-03-19T07:12:56;100034.28;;;3.81;100.00
51439;BME280;38816;51.142;-0.974;2023-03-19T07:15:22;100043.78;;;3.86;100.00
51439;BME280;38816;51.142;-0.974;2023-03-19T07:17:47;100044.72;;;3.88;100.00
51439;BME280;38816;51.142;-0.974;2023-03-19T07:20:14;100048.19;;;3.90;100.00
51439;BME280;38816;51.142;-0.974;2023-03-19T07:22:40;100040.72;;;3.94;100.00
51439;BME280;38816;51.142;-0.974;2023-03-19T07:25:06;100041.97;;;4.04;100.00
51439;BME280;38816;51.142;-0.974;2023-03-19T07:27:31;100042.94;;;4.07;100.00
51439;BME280;38816;51.142;-0.974;2023-03-19T07:29:57;100027.50;;;4.03;100.00
51439;BME280;38816;51.142;-0.974;2023-03-19T07:32:22;100036.19;;;4.08;100.00
51439;BME280;38816;51.142;-0.974;2023-03-19T07:34:48;100033.69;;;4.10;100.00
51439;BME280;38816;51.142;-0.974;2023-03-19T07:37:14;100044.00;;;4.13;100.00
51439;BME280;38816;51.142;-0.974;2023-03-19T07:39:39;100047.72;;;4.21;100.00
51439;BME280;38816;51.142;-0.974;2023-03-19T07:42:05;100063.63;;;4.38;100.00
51439;BME280;38816;51.142;-0.974;2023-03-19T07:44:30;100059.44;;;4.40;100.00
51439;BME280;38816;51.142;-0.974;2023-03-19T07:46:56;100065.94;;;4.54;100.00
51439;BME280;38816;51.142;-0.974;2023-03-19T07:49:22;100050.38;;;4.46;100.00
51439;BME280;38816;51.142;-0.974;2023-03-19T07:51:47;100069.47;;;4.57;100.00
51439;BME280;38816;51.142;-0.974;2023-03-19T07:54:12;100072.31;;;4.65;100.00
51439;BME280;38816;51.142;-0.974;2023-03-19T07:56:38;100060.38;;;4.64;100.00
51439;BME280;38816;51.142;-0.974;2023-03-19T07:59:03;100067.22;;;4.65;100.00
51439;BME280;38816;51.142;-0.974;2023-03-19T08:01:29;100073.50;;;4.75;100.00
51439;BME280;38816;51.142;-0.974;2023-03-19T08:03:54;100075.66;;;4.87;100.00
51439;BME280;38816;51.142;-0.974;2023-03-19T08:06:20;100072.97;;;4.83;100.00
51439;BME280;38816;51.142;-0.974;2023-03-19T08:08:46;100091.84;;;4.89;100.00
51439;BME280;38816;51.142;-0.974;2023-03-19T08:11:11;100092.03;;;4.95;100.00
51439;BME280;38816;51.142;-0.974;2023-03-19T08:13:37;100075.47;;;4.82;100.00
51439;BME280;38816;51.142;-0.974;2023-03-19T08:16:02;100092.16;;;4.98;100.00
51439;BME280;38816;51.142;-0.974;2023-03-19T08:18:28;100095.09;;;5.08;100.00
51439;BME280;38816;51.142;-0.974;2023-03-19T08:20:53;100102.91;;;5.13;100.00
51439;BME280;38816;51.142;-0.974;2023-03-19T08:23:18;100106.50;;;5.18;100.00
51439;BME280;38816;51.142;-0.974;2023-03-19T08:25:44;100095.78;;;5.27;100.00
51439;BME280;38816;51.142;-0.974;2023-03-19T08:28:09;100103.75;;;5.36;100.00
51439;BME280;38816;51.142;-0.974;2023-03-19T08:30:36;100111.78;;;5.48;100.00
51439;BME280;38816;51.142;-0.974;2023-03-19T08:33:02;100098.66;;;5.62;100.00
51439;BME280;38816;51.142;-0.974;2023-03-19T08:35:27;100100.38;;;5.63;100.00
51439;BME280;38816;51.142;-0.974;2023-03-19T08:37:54;100121.69;;;5.63;100.00
51439;BME280;38816;51.142;-0.974;2023-03-19T08:40:20;100129.88;;;5.80;100.00
51439;BME280;38816;51.142;-0.974;2023-03-19T08:42:45;100109.28;;;5.74;100.00
51439;BME280;38816;51.142;-0.974;2023-03-19T08:45:12;100132.53;;;5.83;100.00
51439;BME280;38816;51.142;-0.974;2023-03-19T08:47:39;100128.50;;;5.90;100.00
51439;BME280;38816;51.142;-0.974;2023-03-19T08:50:05;100137.56;;;6.05;100.00
51439;BME280;38816;51.142;-0.974;2023-03-19T08:52:31;100135.56;;;6.22;100.00
51439;BME280;38816;51.142;-0.974;2023-03-19T08:54:56;100127.09;;;6.23;100.00
51439;BME280;38816;51.142;-0.974;2023-03-19T08:57:21;100135.88;;;6.31;100.00
51439;BME280;38816;51.142;-0.974;2023-03-19T08:59:47;100141.41;;;6.45;100.00
51439;BME280;38816;51.142;-0.974;2023-03-19T09:02:12;100143.69;;;6.65;100.00
51439;BME280;38816;51.142;-0.974;2023-03-19T09:04:44;100148.22;;;6.73;100.00
51439;BME280;38816;51.142;-0.974;2023-03-19T09:07:10;100138.16;;;6.79;100.00
51439;BME280;38816;51.142;-0.974;2023-03-19T09:09:38;100162.13;;;7.12;100.00
51439;BME280;38816;51.142;-0.974;2023-03-19T09:12:04;100146.63;;;7.35;100.00
51439;BME280;38816;51.142;-0.974;2023-03-19T09:14:30;100158.34;;;7.59;100.00
51439;BME280;38816;51.142;-0.974;2023-03-19T09:16:55;100164.78;;;7.76;100.00
51439;BME280;38816;51.142;-0.974;2023-03-19T09:19:20;100171.47;;;7.71;100.00
51439;BME280;38816;51.142;-0.974;2023-03-19T09:21:48;100159.81;;;7.51;100.00
51439;BME280;38816;51.142;-0.974;2023-03-19T09:24:13;100167.56;;;7.52;100.00
51439;BME280;38816;51.142;-0.974;2023-03-19T09:26:38;100166.84;;;7.58;100.00
51439;BME280;38816;51.142;-0.974;2023-03-19T09:29:04;100184.75;;;7.90;100.00
51439;BME280;38816;51.142;-0.974;2023-03-19T09:31:29;100177.50;;;8.06;100.00
51439;BME280;38816;51.142;-0.974;2023-03-19T09:33:55;100169.66;;;8.35;100.00
51439;BME280;38816;51.142;-0.974;2023-03-19T09:36:20;100188.28;;;8.62;100.00
51439;BME280;38816;51.142;-0.974;2023-03-19T09:38:46;100184.09;;;8.66;100.00
51439;BME280;38816;51.142;-0.974;2023-03-19T09:41:39;100193.03;;;8.83;95.84
51439;BME280;38816;51.142;-0.974;2023-03-19T09:44:19;100187.63;;;8.71;92.07
51439;BME280;38816;51.142;-0.974;2023-03-19T09:49:35;100193.22;;;8.55;94.66
51439;BME280;38816;51.142;-0.974;2023-03-19T09:54:47;100188.53;;;8.37;93.92
51439;BME280;38816;51.142;-0.974;2023-03-19T09:57:14;100187.06;;;8.47;92.48
51439;BME280;38816;51.142;-0.974;2023-03-19T09:59:39;100196.00;;;8.64;89.42
51439;BME280;38816;51.142;-0.974;2023-03-19T10:04:53;100206.28;;;9.02;88.92
51439;BME280;38816;51.142;-0.974;2023-03-19T10:07:36;100201.97;;;9.01;83.98
51439;BME280;38816;51.142;-0.974;2023-03-19T10:12:47;100205.25;;;8.95;84.26
51439;BME280;38816;51.142;-0.974;2023-03-19T10:15:34;100211.22;;;8.94;82.42
51439;BME280;38816;51.142;-0.974;2023-03-19T10:18:24;100212.72;;;8.84;83.79
51439;BME280;38816;51.142;-0.974;2023-03-19T10:21:15;100223.69;;;8.79;83.44
51439;BME280;38816;51.142;-0.974;2023-03-19T10:23:47;100228.00;;;8.81;86.00
51439;BME280;38816;51.142;-0.974;2023-03-19T10:26:17;100218.56;;;8.79;83.53
51439;BME280;38816;51.142;-0.974;2023-03-19T10:28:45;100215.69;;;8.65;84.58
51439;BME280;38816;51.142;-0.974;2023-03-19T10:31:24;100236.56;;;8.82;85.68
51439;BME280;38816;51.142;-0.974;2023-03-19T10:34:12;100235.53;;;8.74;82.65
51439;BME280;38816;51.142;-0.974;2023-03-19T10:36:38;100229.16;;;8.58;87.13
51439;BME280;38816;51.142;-0.974;2023-03-19T10:39:04;100245.63;;;8.68;86.59
51439;BME280;38816;51.142;-0.974;2023-03-19T10:44:08;100237.22;;;8.73;87.40
51439;BME280;38816;51.142;-0.974;2023-03-19T10:46:39;100239.72;;;8.70;87.38
51439;BME280;38816;51.142;-0.974;2023-03-19T10:49:16;100234.94;;;8.85;88.91
51439;BME280;38816;51.142;-0.974;2023-03-19T10:51:44;100230.13;;;8.99;89.40
51439;BME280;38816;51.142;-0.974;2023-03-19T10:54:24;100224.97;;;8.96;84.73
51439;BME280;38816;51.142;-0.974;2023-03-19T10:56:54;100233.34;;;8.91;85.24
51439;BME280;38816;51.142;-0.974;2023-03-19T10:59:24;100240.91;;;8.84;85.57
51439;BME280;38816;51.142;-0.974;2023-03-19T11:01:55;100224.72;;;8.87;88.88
51439;BME280;38816;51.142;-0.974;2023-03-19T11:04:22;100222.44;;;8.99;89.47
51439;BME280;38816;51.142;-0.974;2023-03-19T11:06:49;100219.41;;;9.17;89.64
51439;BME280;38816;51.142;-0.974;2023-03-19T11:09:32;100224.31;;;9.46;87.01
51439;BME280;38816;51.142;-0.974;2023-03-19T11:12:16;100235.53;;;9.51;84.85
51439;BME280;38816;51.142;-0.974;2023-03-19T11:14:49;100241.53;;;9.51;85.30
51439;BME280;38816;51.142;-0.974;2023-03-19T11:20:19;100239.50;;;9.77;83.34
51439;BME280;38816;51.142;-0.974;2023-03-19T11:22:46;100226.66;;;9.79;84.61
51439;BME280;38816;51.142;-0.974;2023-03-19T11:25:35;100239.59;;;9.83;81.85
51439;BME280;38816;51.142;-0.974;2023-03-19T11:28:05;100237.69;;;9.73;81.16
51439;BME280;38816;51.142;-0.974;2023-03-19T11:36:30;100234.56;;;9.89;83.13
51439;BME280;38816;51.142;-0.974;2023-03-19T11:39:13;100242.22;;;9.86;78.82
51439;BME280;38816;51.142;-0.974;2023-03-19T11:50:02;100253.63;;;9.58;82.00
51439;BME280;38816;51.142;-0.974;2023-03-19T11:55:42;100270.69;;;9.55;82.03
51439;BME280;38816;51.142;-0.974;2023-03-19T12:00:56;100270.91;;;9.67;79.28
51439;BME280;38816;51.142;-0.974;2023-03-19T12:08:58;100263.28;;;9.70;78.82
51439;BME280;38816;51.142;-0.974;2023-03-19T12:15:09;100270.47;;;9.86;80.56
51439;BME280;38816;51.142;-0.974;2023-03-19T12:20:16;100248.94;;;9.81;78.23
51439;BME280;38816;51.142;-0.974;2023-03-19T12:23:05;100268.00;;;9.93;79.88
51439;BME280;38816;51.142;-0.974;2023-03-19T12:25:57;100260.69;;;10.12;79.16
51439;BME280;38816;51.142;-0.974;2023-03-19T12:28:51;100254.09;;;10.25;76.30
51439;BME280;38816;51.142;-0.974;2023-03-19T12:34:32;100261.38;;;10.49;72.33
51439;BME280;38816;51.142;-0.974;2023-03-19T12:39:43;100256.41;;;10.58;72.47
51439;BME280;38816;51.142;-0.974;2023-03-19T12:42:15;100245.38;;;10.67;72.30
51439;BME280;38816;51.142;-0.974;2023-03-19T12:44:48;100251.47;;;10.72;70.51
51439;BME280;38816;51.142;-0.974;2023-03-19T12:47:30;100251.34;;;10.66;70.29
51439;BME280;38816;51.142;-0.974;2023-03-19T12:50:01;100244.19;;;10.45;68.95
51439;BME280;38816;51.142;-0.974;2023-03-19T12:52:38;100256.25;;;10.49;71.67
51439;BME280;38816;51.142;-0.974;2023-03-19T12:55:29;100247.84;;;10.61;70.20
51439;BME280;38816;51.142;-0.974;2023-03-19T12:58:11;100236.06;;;10.74;69.75
51439;BME280;38816;51.142;-0.974;2023-03-19T13:00:56;100253.34;;;10.84;70.80
51439;BME280;38816;51.142;-0.974;2023-03-19T13:03:33;100257.88;;;10.99;71.31
51439;BME280;38816;51.142;-0.974;2023-03-19T13:06:04;100261.13;;;10.85;69.40
51439;BME280;38816;51.142;-0.974;2023-03-19T13:08:42;100262.28;;;11.07;70.89
51439;BME280;38816;51.142;-0.974;2023-03-19T13:11:23;100258.56;;;10.88;69.83
51439;BME280;38816;51.142;-0.974;2023-03-19T13:13:58;100267.69;;;10.68;70.83
51439;BME280;38816;51.142;-0.974;2023-03-19T13:16:40;100256.19;;;10.48;71.30
51439;BME280;38816;51.142;-0.974;2023-03-19T13:19:39;100252.69;;;10.43;73.40
51439;BME280;38816;51.142;-0.974;2023-03-19T13:22:05;100256.25;;;10.49;74.58
51439;BME280;38816;51.142;-0.974;2023-03-19T13:24:33;100263.97;;;10.52;72.24
51439;BME280;38816;51.142;-0.974;2023-03-19T13:27:00;100257.13;;;10.51;72.33
51439;BME280;38816;51.142;-0.974;2023-03-19T13:29:31;100240.06;;;10.55;71.83
51439;BME280;38816;51.142;-0.974;2023-03-19T13:32:22;100245.53;;;10.76;74.03
51439;BME280;38816;51.142;-0.974;2023-03-19T13:34:48;100245.97;;;11.04;71.46
51439;BME280;38816;51.142;-0.974;2023-03-19T13:37:18;100229.72;;;11.08;70.49
51439;BME280;38816;51.142;-0.974;2023-03-19T13:39:46;100244.63;;;11.33;67.81
51439;BME280;38816;51.142;-0.974;2023-03-19T13:42:35;100242.66;;;11.14;68.64
51439;BME280;38816;51.142;-0.974;2023-03-19T13:45:35;100239.38;;;11.24;71.62
51439;BME280;38816;51.142;-0.974;2023-03-19T13:51:02;100256.66;;;11.34;71.83
51439;BME280;38816;51.142;-0.974;2023-03-19T13:55:57;100251.84;;;11.57;69.83
51439;BME280;38816;51.142;-0.974;2023-03-19T13:58:27;100245.84;;;11.61;72.03
51439;BME280;38816;51.142;-0.974;2023-03-19T14:01:35;100248.41;;;11.60;70.70